หน้าหลัก
METAR-TAF:

METAR-TAF

ท่าอากาศยาน :

Humberside, อังกฤษ

ละติจูด: 53-35N, ลองจิจูด: 000-21W, ความสูง: 31 ม.

การสังเกตสภาพอากาศปัจจุบัน

รายงานได้ทำขึ้นเมื่อ 19 นาทีที่แล้ว ณ เวลา 01:20 UTC
ลม 7 นอตจากเหนือ
อุณหภูมิ 11°C
ความชื้น 87%
ความกดอากาศ 1020 hPa
ทัศนวิสัย 10 กม. หรือมากกว่า

METAR: EGNJ 190120Z AUTO 35007KT 9999 BKN023/// 11/09 Q1020

เวลา: 02:39 (01:39 UTC)

การพยากรณ์

รายงานได้ทำขึ้นเมื่อ 2 ชั่วโมงและ 38 นาทีที่แล้ว ณ เวลา 23:01 UTC
การพยากรณ์มีผลตั้งแต่วันที่ 19 ณ เวลา 00 UTC จนถึงวันที่ 19 ณ เวลา 09 UTC
ลม 5 นอตจากเหนือ
ทัศนวิสัย 10 กม. หรือมากกว่า
มีเมฆน้อยที่ความสูง 3000 ฟุต
ชั่วคราว
ตั้งแต่วันที่ 19 ณ เวลา 00 UTC จนถึงวันที่ 19 ณ เวลา 07 UTC
มีเมฆเป็นส่วนมากเว้นเป็นระยะที่ความสูง 1400 ฟุต
ความน่าจะเป็น 30% :
ชั่วคราว
ตั้งแต่วันที่ 19 ณ เวลา 00 UTC จนถึงวันที่ 19 ณ เวลา 07 UTC
มีเมฆเป็นส่วนมากเว้นเป็นระยะที่ความสูง 800 ฟุต

TAF: EGNJ 182301Z 1900/1909 01005KT 9999 FEW030 TEMPO 1900/1907 BKN014 PROB30 TEMPO 1900/1907 BKN008

สังเกตการณ์สภาพอากาศและพยากรณ์อากาศของสนามบินมากกว่า 4000 แห่ง (รายงาน METAR และ TAF).

สถานีที่ดูได้จะแสดงไว้ด้วยจุดสีเหลืองและสีแดงบนแผนที่.

เลื่อนเมาส์ไปเหนือจุดเพื่อดูชื่อสถานี.

แล้วคลิกเพื่อดูสังเกตการณ์และการพยากรณ์สภาพอากาศ.

ในการเปลี่ยนแผนที่: คลิกที่ปุ่มสีเขียวที่มีกากบาทสีดำเพื่อซูมเข้า; ที่ปุ่มสีเขียวที่มีขีดเพื่อซูมออก; หรือที่ลูกศรสีเขียวเพื่อไปยังแผนที่ที่อยู่ติดกัน.


METAR-TAF: